createdAt,value
2022-10-22T00:00:15.948Z,20.38
2022-10-22T00:01:20.151Z,20.55
2022-10-22T00:02:22.541Z,20.00
2022-10-22T00:03:25.974Z,19.60
2022-10-22T00:04:32.846Z,19.58
2022-10-22T00:05:38.290Z,20.80
2022-10-22T00:06:40.364Z,20.45
2022-10-22T00:07:43.515Z,20.45
2022-10-22T00:08:45.960Z,20.05
2022-10-22T00:09:49.958Z,20.67
2022-10-22T00:10:52.934Z,20.33
2022-10-22T00:11:56.183Z,19.88
2022-10-22T00:13:00.290Z,19.17
2022-10-22T00:14:03.396Z,19.98
2022-10-22T00:15:07.028Z,19.08
2022-10-22T00:16:10.526Z,19.52
2022-10-22T00:17:12.564Z,19.38
2022-10-22T00:18:15.805Z,20.45
2022-10-22T00:19:18.210Z,20.20
2022-10-22T00:20:21.257Z,19.92
2022-10-22T00:21:23.985Z,19.90
2022-10-22T00:22:27.152Z,19.67
2022-10-22T00:23:29.741Z,19.42
2022-10-22T00:24:33.163Z,19.77
2022-10-22T00:25:36.445Z,20.30
2022-10-22T00:26:40.385Z,19.00
2022-10-22T00:27:42.880Z,19.25
2022-10-22T00:28:47.712Z,20.33
2022-10-22T00:29:49.795Z,19.42
2022-10-22T00:30:58.017Z,19.98
2022-10-22T00:32:00.289Z,20.17
2022-10-22T00:33:03.394Z,19.63
2022-10-22T00:34:05.970Z,19.63
2022-10-22T00:35:09.367Z,19.85
2022-10-22T00:36:11.377Z,18.92
2022-10-22T00:37:14.401Z,19.67
2022-10-22T00:38:16.980Z,19.65
2022-10-22T00:39:23.368Z,19.70
2022-10-22T00:40:25.768Z,19.73
2022-10-22T00:41:29.101Z,19.48
2022-10-22T00:42:31.240Z,19.90
2022-10-22T00:43:35.070Z,19.23
2022-10-22T00:45:14.435Z,20.65
2022-10-22T00:46:17.694Z,18.83
2022-10-22T00:47:22.954Z,18.90
2022-10-22T00:48:31.232Z,19.35
2022-10-22T00:49:33.263Z,18.83
2022-10-22T00:50:39.621Z,20.15
2022-10-22T00:51:42.071Z,20.30
2022-10-22T00:52:45.590Z,19.05
2022-10-22T00:53:51.157Z,19.98
2022-10-22T00:54:54.373Z,20.35
2022-10-22T00:55:57.026Z,20.10
2022-10-22T00:57:00.230Z,20.50
2022-10-22T00:58:02.948Z,20.05
2022-10-22T01:00:13.622Z,20.48
2022-10-22T01:01:21.630Z,19.90
2022-10-22T01:02:24.286Z,19.45
2022-10-22T01:03:27.448Z,19.95
2022-10-22T01:04:29.543Z,19.65
2022-10-22T01:05:40.467Z,20.15
2022-10-22T01:06:42.735Z,19.27
2022-10-22T01:07:49.500Z,20.95
2022-10-22T01:08:58.291Z,20.25
2022-10-22T01:10:06.392Z,19.40
2022-10-22T01:11:16.841Z,19.85
2022-10-22T01:12:25.179Z,19.73
2022-10-22T01:13:36.846Z,20.90
2022-10-22T01:15:04.524Z,19.85
2022-10-22T01:16:12.515Z,20.00
2022-10-22T01:17:25.008Z,20.35
2022-10-22T01:18:35.944Z,20.13
2022-10-22T01:21:05.930Z,19.48
2022-10-22T01:22:17.022Z,20.27
2022-10-22T01:23:36.281Z,20.88
2022-10-22T01:24:52.409Z,19.70
2022-10-22T01:26:04.540Z,19.27
2022-10-22T01:27:27.771Z,19.90
2022-10-22T01:28:57.619Z,20.30
2022-10-22T01:30:03.934Z,20.27
2022-10-22T01:31:10.159Z,20.73
2022-10-22T01:32:17.111Z,20.35
2022-10-22T01:33:23.085Z,20.67
2022-10-22T01:34:26.188Z,21.02
2022-10-22T01:36:38.964Z,22.30
2022-10-22T01:37:45.656Z,20.67
2022-10-22T01:38:49.703Z,21.45
2022-10-22T01:39:54.179Z,21.75
2022-10-22T01:40:57.568Z,22.77
2022-10-22T01:42:00.734Z,22.27
2022-10-22T01:43:04.928Z,22.33
2022-10-22T01:44:30.805Z,21.95
2022-10-22T01:45:35.826Z,22.13
2022-10-22T01:46:39.571Z,21.15
2022-10-22T01:47:54.386Z,22.15
2022-10-22T01:49:16.119Z,23.40
2022-10-22T01:50:45.454Z,21.75
2022-10-22T01:51:58.817Z,21.38
2022-10-22T01:53:14.220Z,21.95
2022-10-22T01:54:27.208Z,23.15
2022-10-22T01:55:36.399Z,22.73
2022-10-22T01:56:55.875Z,22.73
2022-10-22T01:58:06.239Z,23.25
2022-10-22T01:59:16.648Z,22.40
2022-10-22T02:00:20.860Z,22.38
2022-10-22T02:01:31.888Z,22.98
2022-10-22T02:02:42.049Z,23.35
2022-10-22T02:03:49.295Z,24.17
2022-10-22T02:04:57.199Z,25.02
2022-10-22T02:06:05.161Z,24.55
2022-10-22T02:07:11.736Z,24.20
2022-10-22T02:08:18.526Z,23.50
2022-10-22T02:09:23.110Z,23.30
2022-10-22T02:10:27.216Z,23.55
2022-10-22T02:11:29.857Z,24.92
2022-10-22T02:12:34.961Z,24.83
2022-10-22T02:13:42.465Z,25.95
2022-10-22T02:14:46.903Z,25.00
2022-10-22T02:15:53.027Z,26.48
2022-10-22T02:16:59.305Z,23.95
2022-10-22T02:18:01.501Z,23.42
2022-10-22T02:19:09.071Z,22.80
2022-10-22T02:20:16.471Z,26.15
2022-10-22T02:21:19.583Z,24.20
2022-10-22T02:22:21.988Z,24.63
2022-10-22T02:23:25.109Z,24.02
2022-10-22T02:24:27.781Z,24.20
2022-10-22T02:25:33.776Z,23.15
2022-10-22T02:26:41.983Z,24.17
2022-10-22T02:27:47.797Z,23.73
2022-10-22T02:28:58.321Z,24.33
2022-10-22T02:30:06.489Z,24.77
2022-10-22T02:31:15.200Z,24.05
2022-10-22T02:32:22.893Z,23.75
2022-10-22T02:33:28.852Z,24.00
2022-10-22T02:34:33.236Z,21.90
2022-10-22T02:35:36.593Z,25.17
2022-10-22T02:36:42.786Z,23.55
2022-10-22T02:37:48.759Z,23.42
2022-10-22T02:38:53.344Z,23.85
2022-10-22T02:39:56.452Z,24.02
2022-10-22T02:41:00.106Z,24.73
2022-10-22T02:42:03.055Z,26.17
2022-10-22T02:43:06.615Z,24.90
2022-10-22T02:44:10.955Z,22.60
2022-10-22T02:45:14.098Z,21.60
2022-10-22T02:46:17.728Z,23.40
2022-10-22T02:47:21.234Z,24.83
2022-10-22T02:48:23.288Z,25.80
2022-10-22T02:49:26.338Z,24.55
2022-10-22T02:50:28.523Z,24.02
2022-10-22T02:51:32.562Z,24.42
2022-10-22T02:52:35.716Z,24.05
2022-10-22T02:53:39.374Z,22.63
2022-10-22T02:54:41.444Z,22.67
2022-10-22T02:55:44.583Z,24.55
2022-10-22T02:56:46.825Z,23.13
2022-10-22T02:57:49.931Z,23.40
2022-10-22T02:58:52.064Z,21.35
2022-10-22T02:59:55.273Z,22.42
2022-10-22T03:00:57.522Z,23.02
2022-10-22T03:02:01.999Z,22.05
2022-10-22T03:03:04.059Z,25.67
2022-10-22T03:04:07.093Z,24.25
2022-10-22T03:05:10.244Z,22.55
2022-10-22T03:06:13.672Z,22.88
2022-10-22T03:07:15.909Z,22.45
2022-10-22T03:08:19.150Z,21.08
2022-10-22T03:09:24.035Z,21.67
2022-10-22T03:10:27.972Z,23.33
2022-10-22T03:11:30.023Z,21.92
2022-10-22T03:12:33.113Z,23.95
2022-10-22T03:13:35.204Z,21.25
2022-10-22T03:14:39.665Z,22.75
2022-10-22T03:15:41.856Z,23.02
2022-10-22T03:16:45.036Z,21.25
2022-10-22T03:17:48.450Z,21.42
2022-10-22T03:18:51.473Z,20.40
2022-10-22T03:19:53.630Z,23.23
2022-10-22T03:21:05.412Z,21.92
2022-10-22T03:22:10.540Z,23.67
2022-10-22T03:23:16.561Z,23.63
2022-10-22T03:24:21.536Z,22.75
2022-10-22T03:25:28.525Z,21.00
2022-10-22T03:26:32.730Z,22.02
2022-10-22T03:27:37.662Z,21.80
2022-10-22T03:28:41.334Z,20.90
2022-10-22T03:29:46.938Z,21.20
2022-10-22T03:30:49.007Z,20.20
2022-10-22T03:31:53.074Z,23.73
2022-10-22T03:32:56.518Z,22.95
2022-10-22T03:33:59.583Z,23.63
2022-10-22T03:35:01.797Z,22.45
2022-10-22T03:36:05.467Z,23.60
2022-10-22T03:37:08.527Z,24.58
2022-10-22T03:38:10.970Z,24.88
2022-10-22T03:39:15.826Z,26.33
2022-10-22T03:40:19.015Z,25.58
2022-10-22T03:41:22.268Z,26.00
2022-10-22T03:42:24.892Z,26.38
2022-10-22T03:43:28.527Z,26.23
2022-10-22T03:44:31.164Z,25.52
2022-10-22T03:45:34.271Z,23.92
2022-10-22T03:46:36.643Z,25.80
2022-10-22T03:47:39.933Z,26.13
2022-10-22T03:48:43.526Z,25.15
2022-10-22T03:49:46.651Z,24.55
2022-10-22T03:50:49.552Z,25.98
2022-10-22T03:51:52.604Z,24.58
2022-10-22T03:52:54.663Z,25.05
2022-10-22T03:53:57.737Z,25.23
2022-10-22T03:54:59.776Z,24.33
2022-10-22T03:56:02.975Z,25.77
2022-10-22T03:57:05.733Z,25.75
2022-10-22T03:58:08.816Z,27.48
2022-10-22T03:59:10.942Z,26.15
2022-10-22T04:00:14.211Z,26.77
2022-10-22T04:01:16.332Z,26.92
2022-10-22T04:02:19.448Z,28.48
2022-10-22T04:03:21.500Z,27.80
2022-10-22T04:04:26.069Z,27.58
2022-10-22T04:05:28.161Z,29.77
2022-10-22T04:06:31.830Z,28.73
2022-10-22T04:07:33.839Z,31.08
2022-10-22T04:08:37.624Z,30.55
2022-10-22T04:09:39.774Z,29.85
2022-10-22T04:10:42.853Z,30.50
2022-10-22T04:11:44.925Z,29.45
2022-10-22T04:12:49.259Z,30.08
2022-10-22T04:13:51.273Z,30.67
2022-10-22T04:14:54.322Z,30.42
2022-10-22T04:15:56.451Z,30.73
2022-10-22T04:16:59.495Z,31.15
2022-10-22T04:18:01.531Z,32.20
2022-10-22T04:19:04.613Z,32.58
2022-10-22T04:20:09.289Z,32.70
2022-10-22T04:21:14.159Z,31.83
2022-10-22T04:22:16.197Z,31.33
2022-10-22T04:23:19.266Z,32.33
2022-10-22T04:24:21.423Z,34.00
2022-10-22T04:25:24.509Z,33.55
2022-10-22T04:26:26.718Z,31.85
2022-10-22T04:27:31.465Z,31.27
2022-10-22T04:28:33.567Z,31.98
2022-10-22T04:29:36.839Z,32.85
2022-10-22T04:30:38.872Z,33.83
2022-10-22T04:31:41.966Z,34.17
2022-10-22T04:32:44.169Z,33.53
2022-10-22T04:33:47.612Z,31.77
2022-10-22T04:34:49.634Z,32.78
2022-10-22T04:35:54.060Z,32.42
2022-10-22T04:36:56.554Z,33.97
2022-10-22T04:37:59.661Z,34.63
2022-10-22T04:39:02.536Z,33.67
2022-10-22T04:40:06.525Z,32.75
2022-10-22T04:41:10.433Z,32.90
2022-10-22T04:42:13.814Z,32.65
2022-10-22T04:43:15.920Z,31.95
2022-10-22T04:44:18.965Z,32.65
2022-10-22T04:45:22.054Z,32.30
2022-10-22T04:46:27.764Z,32.15
2022-10-22T04:47:30.941Z,33.10
2022-10-22T04:48:33.033Z,33.97
2022-10-22T04:49:36.113Z,32.20
2022-10-22T04:50:38.212Z,32.63
2022-10-22T04:51:43.799Z,32.95
2022-10-22T04:52:45.958Z,32.55
2022-10-22T04:53:50.149Z,33.53
2022-10-22T04:54:52.232Z,32.38
2022-10-22T04:55:55.324Z,32.63
2022-10-22T04:56:58.416Z,32.55
2022-10-22T04:58:01.382Z,32.10
2022-10-22T04:59:06.823Z,33.05
2022-10-22T05:00:10.126Z,31.80
2022-10-22T05:01:15.576Z,31.05
2022-10-22T05:02:17.730Z,32.70
2022-10-22T05:03:20.768Z,32.13
2022-10-22T05:04:22.775Z,32.78
2022-10-22T05:05:25.805Z,32.05
2022-10-22T05:06:29.021Z,36.28
2022-10-22T05:07:33.496Z,32.60
2022-10-22T05:08:35.700Z,31.63
2022-10-22T05:09:39.105Z,32.97
2022-10-22T05:10:41.127Z,31.73
2022-10-22T05:11:48.436Z,31.63
2022-10-22T05:12:51.607Z,32.25
2022-10-22T05:13:55.144Z,32.88
2022-10-22T05:14:58.177Z,30.42
2022-10-22T05:16:01.589Z,32.45
2022-10-22T05:17:04.684Z,31.65
2022-10-22T05:18:06.803Z,30.25
2022-10-22T05:19:10.175Z,39.65
2022-10-22T05:20:12.372Z,30.25
2022-10-22T05:21:17.523Z,33.90
2022-10-22T05:22:19.605Z,30.17
2022-10-22T05:23:24.065Z,30.05
2022-10-22T05:24:26.827Z,29.38
2022-10-22T05:25:29.921Z,29.48
2022-10-22T05:26:31.981Z,37.97
2022-10-22T05:27:35.023Z,30.50
2022-10-22T05:28:37.574Z,29.13
2022-10-22T05:29:40.726Z,30.30
2022-10-22T05:30:42.770Z,33.45
2022-10-22T05:31:45.923Z,33.65
2022-10-22T05:32:47.985Z,29.92
2022-10-22T05:33:51.110Z,28.65
2022-10-22T05:34:53.237Z,28.60
2022-10-22T05:35:56.683Z,26.83
2022-10-22T05:36:59.773Z,27.80
2022-10-22T05:38:01.840Z,28.10
2022-10-22T05:39:06.809Z,29.23
2022-10-22T05:40:19.313Z,29.35
2022-10-22T05:41:24.496Z,26.95
2022-10-22T05:42:26.558Z,27.27
2022-10-22T05:43:30.129Z,27.13
2022-10-22T05:44:32.364Z,28.27
2022-10-22T05:45:38.145Z,27.63
2022-10-22T05:46:43.296Z,26.70
2022-10-22T05:47:45.462Z,27.50
2022-10-22T05:48:50.904Z,26.33
2022-10-22T05:49:54.343Z,27.15
2022-10-22T05:50:58.334Z,27.95
2022-10-22T05:52:00.387Z,27.52
2022-10-22T05:53:03.464Z,27.58
2022-10-22T05:54:08.480Z,27.52
2022-10-22T05:55:11.517Z,26.77
2022-10-22T05:56:15.930Z,26.65
2022-10-22T05:57:19.013Z,27.15
2022-10-22T05:58:21.085Z,28.77
2022-10-22T05:59:24.102Z,27.48
2022-10-22T06:00:26.166Z,27.15
2022-10-22T06:01:31.236Z,27.48
2022-10-22T06:02:33.350Z,26.80
2022-10-22T06:03:36.563Z,27.63
2022-10-22T06:04:38.674Z,26.77
2022-10-22T06:05:41.805Z,26.73
2022-10-22T06:06:47.230Z,27.88
2022-10-22T06:07:49.317Z,27.27
2022-10-22T06:08:53.885Z,27.52
2022-10-22T06:09:57.417Z,28.02
2022-10-22T06:11:01.738Z,28.40
2022-10-22T06:12:04.232Z,27.65
2022-10-22T06:13:08.205Z,28.13
2022-10-22T06:14:10.762Z,27.73
2022-10-22T06:15:14.665Z,27.45
2022-10-22T06:16:16.793Z,28.35
2022-10-22T06:17:20.054Z,28.00
2022-10-22T06:18:22.103Z,28.30
2022-10-22T06:19:26.870Z,28.50
2022-10-22T06:20:28.928Z,28.48
2022-10-22T06:21:32.983Z,26.77
2022-10-22T06:22:35.033Z,26.25
2022-10-22T06:23:39.069Z,27.30
2022-10-22T06:24:45.058Z,27.38
2022-10-22T06:25:57.975Z,28.35
2022-10-22T06:27:01.065Z,27.67
2022-10-22T06:28:03.247Z,27.85
2022-10-22T06:29:06.365Z,27.73
2022-10-22T06:30:09.422Z,28.30
2022-10-22T06:31:12.506Z,28.63
2022-10-22T06:32:14.595Z,27.77
2022-10-22T06:33:17.669Z,26.75
2022-10-22T06:34:19.779Z,27.63
2022-10-22T06:35:22.818Z,28.17
2022-10-22T06:36:26.418Z,27.85
2022-10-22T06:37:28.479Z,28.25
2022-10-22T06:38:31.552Z,28.38
2022-10-22T06:39:34.592Z,29.23
2022-10-22T06:40:36.655Z,28.75
2022-10-22T06:41:41.274Z,28.20
2022-10-22T06:42:43.486Z,28.55
2022-10-22T06:43:47.570Z,26.65
2022-10-22T06:44:49.700Z,26.73
2022-10-22T06:45:52.766Z,26.30
2022-10-22T06:46:54.817Z,26.83
2022-10-22T06:47:58.268Z,27.17
2022-10-22T06:49:03.104Z,26.60
2022-10-22T06:50:06.880Z,26.20
2022-10-22T06:51:10.952Z,27.33
2022-10-22T06:52:14.072Z,25.15
2022-10-22T06:53:16.188Z,27.08
2022-10-22T06:54:19.394Z,26.42
2022-10-22T06:55:21.486Z,25.65
2022-10-22T06:56:26.558Z,26.65
2022-10-22T06:57:30.207Z,25.15
2022-10-22T06:58:33.204Z,25.90
2022-10-22T06:59:35.222Z,25.25
2022-10-22T07:00:38.257Z,25.35
2022-10-22T07:01:42.326Z,25.63
2022-10-22T07:02:44.448Z,26.88
2022-10-22T07:03:47.655Z,25.63
2022-10-22T07:04:49.780Z,25.58
2022-10-22T07:05:52.871Z,26.48
2022-10-22T07:06:55.218Z,26.77
2022-10-22T07:07:58.191Z,26.00
2022-10-22T07:09:00.902Z,24.90
2022-10-22T07:10:03.977Z,23.70
2022-10-22T07:11:07.376Z,24.75
2022-10-22T07:12:10.424Z,24.80
2022-10-22T07:13:13.805Z,25.42
2022-10-22T07:14:16.909Z,24.58
2022-10-22T07:15:18.910Z,22.98
2022-10-22T07:20:41.590Z,22.85
2022-10-22T07:21:44.660Z,22.33
2022-10-22T07:22:46.823Z,22.80
2022-10-22T07:23:50.173Z,22.42
2022-10-22T07:24:52.219Z,23.88
2022-10-22T07:26:59.692Z,22.95
2022-10-22T07:28:01.699Z,23.05
2022-10-22T07:29:06.943Z,22.92
2022-10-22T07:30:09.899Z,23.40
2022-10-22T07:31:14.478Z,24.65
2022-10-22T07:32:18.750Z,24.35
2022-10-22T07:33:23.648Z,23.17
2022-10-22T07:34:25.666Z,23.55
2022-10-22T07:35:28.739Z,21.70
2022-10-22T07:36:30.765Z,22.17
2022-10-22T07:37:33.775Z,24.95
2022-10-22T07:38:36.469Z,21.98
2022-10-22T07:39:39.505Z,21.17
2022-10-22T07:40:41.783Z,21.98
2022-10-22T07:41:44.800Z,21.42
2022-10-22T07:42:46.796Z,21.17
2022-10-22T07:43:53.658Z,20.10
2022-10-22T07:44:57.044Z,21.20
2022-10-22T07:46:00.716Z,20.38
2022-10-22T07:47:04.598Z,20.33
2022-10-22T07:48:08.099Z,21.20
2022-10-22T07:49:11.530Z,20.10
2022-10-22T07:50:18.510Z,20.02
2022-10-22T07:51:26.307Z,19.95
2022-10-22T07:52:35.406Z,19.98
2022-10-22T07:53:40.548Z,19.25
2022-10-22T07:54:44.776Z,20.52
2022-10-22T07:55:50.235Z,19.58
2022-10-22T07:56:54.227Z,19.13
2022-10-22T07:57:57.352Z,20.63
2022-10-22T07:59:03.420Z,20.17
2022-10-22T08:00:08.986Z,19.85
2022-10-22T08:01:20.598Z,19.13
2022-10-22T08:02:23.409Z,19.80
2022-10-22T08:03:28.423Z,19.58
2022-10-22T08:04:30.508Z,20.08
2022-10-22T08:05:33.575Z,19.85
2022-10-22T08:06:38.614Z,19.77
2022-10-22T08:07:40.885Z,20.58
2022-10-22T08:08:45.758Z,19.83
2022-10-22T08:09:47.893Z,19.88
2022-10-22T08:10:53.937Z,20.20
2022-10-22T08:11:56.023Z,18.50
2022-10-22T08:12:59.831Z,19.52
2022-10-22T08:14:01.913Z,19.63
2022-10-22T08:15:07.906Z,19.90
2022-10-22T08:16:10.218Z,18.85
2022-10-22T08:17:13.297Z,18.98
2022-10-22T08:18:15.418Z,19.23
2022-10-22T08:19:21.161Z,18.77
2022-10-22T08:20:23.267Z,19.10
2022-10-22T08:21:26.670Z,19.52
2022-10-22T08:22:29.198Z,19.65
2022-10-22T08:23:32.885Z,19.25
2022-10-22T08:24:35.021Z,19.05
2022-10-22T08:25:38.259Z,18.13
2022-10-22T08:26:41.154Z,19.35
2022-10-22T08:27:44.346Z,17.98
2022-10-22T08:28:46.491Z,18.60
2022-10-22T08:29:49.993Z,18.95
2022-10-22T08:30:53.423Z,17.98
2022-10-22T08:31:56.459Z,17.88
2022-10-22T08:32:58.504Z,17.33
2022-10-22T08:34:01.684Z,17.83
2022-10-22T08:35:04.422Z,17.73
2022-10-22T08:36:08.809Z,18.15
2022-10-22T08:37:14.334Z,18.08
2022-10-22T08:38:17.462Z,17.15
2022-10-22T08:39:19.624Z,16.90
2022-10-22T08:40:29.676Z,15.80
2022-10-22T08:41:39.389Z,16.58
2022-10-22T08:43:03.333Z,16.23
2022-10-22T08:44:24.298Z,16.17
2022-10-22T08:45:34.554Z,15.95
2022-10-22T08:46:53.819Z,16.02
2022-10-22T08:48:08.987Z,16.42
2022-10-22T08:49:18.386Z,15.80
2022-10-22T08:50:27.100Z,14.98
2022-10-22T08:51:34.148Z,15.20
2022-10-22T08:52:38.025Z,14.38
2022-10-22T08:53:51.595Z,14.50
2022-10-22T08:54:59.556Z,13.73
2022-10-22T08:56:01.830Z,13.18
2022-10-22T08:57:21.353Z,13.63
2022-10-22T08:58:33.088Z,12.73
2022-10-22T08:59:41.754Z,12.25
2022-10-22T09:00:47.522Z,12.25
2022-10-22T09:01:54.358Z,11.82
2022-10-22T09:03:17.193Z,12.13
2022-10-22T09:04:25.433Z,11.93
2022-10-22T09:05:44.064Z,11.55
2022-10-22T09:06:49.540Z,11.48
2022-10-22T09:07:56.669Z,11.52
2022-10-22T09:09:01.593Z,11.30
2022-10-22T09:10:04.171Z,10.77
2022-10-22T09:11:15.066Z,11.18
2022-10-22T09:12:20.275Z,10.13
2022-10-22T09:13:24.624Z,10.57
2022-10-22T09:14:28.043Z,10.93
2022-10-22T09:15:31.469Z,10.50
2022-10-22T09:16:39.810Z,9.60
2022-10-22T09:17:53.366Z,10.60
2022-10-22T09:19:05.410Z,9.63
2022-10-22T09:20:16.290Z,9.35
2022-10-22T09:21:30.267Z,9.05
2022-10-22T09:22:38.221Z,9.45
2022-10-22T09:23:56.693Z,9.60
2022-10-22T09:25:03.115Z,8.90
2022-10-22T09:26:14.779Z,8.95
2022-10-22T09:27:19.629Z,8.23
2022-10-22T09:28:22.868Z,8.80
2022-10-22T09:29:32.960Z,8.10
2022-10-22T09:30:38.700Z,8.07
2022-10-22T09:31:42.155Z,8.02
2022-10-22T09:32:47.570Z,7.60
2022-10-22T09:33:51.127Z,7.90
2022-10-22T09:34:59.228Z,7.75
2022-10-22T09:36:03.619Z,8.23
2022-10-22T09:37:09.229Z,7.70
2022-10-22T09:38:13.934Z,7.22
2022-10-22T09:39:27.948Z,7.28
2022-10-22T09:40:29.998Z,7.22
2022-10-22T09:41:33.248Z,6.68
2022-10-22T09:42:35.386Z,6.95
2022-10-22T09:43:38.777Z,6.47
2022-10-22T09:44:43.734Z,6.38
2022-10-22T09:45:56.187Z,6.47
2022-10-22T09:46:58.229Z,6.82
2022-10-22T09:48:12.940Z,6.40
2022-10-22T09:49:17.742Z,6.47
2022-10-22T09:50:27.383Z,6.38
2022-10-22T09:51:40.590Z,5.90
2022-10-22T09:52:44.095Z,6.60
2022-10-22T09:53:48.366Z,6.50
2022-10-22T09:54:53.752Z,6.20
2022-10-22T09:55:57.901Z,5.63
2022-10-22T09:57:07.232Z,5.70
2022-10-22T09:58:12.379Z,5.43
2022-10-22T09:59:16.742Z,6.22
2022-10-22T10:00:19.918Z,5.55
2022-10-22T10:01:29.169Z,5.32
2022-10-22T10:02:38.786Z,5.55
2022-10-22T10:03:43.557Z,5.55
2022-10-22T10:04:48.840Z,5.75
2022-10-22T10:05:55.645Z,5.65
2022-10-22T10:06:58.418Z,5.72
2022-10-22T10:08:09.458Z,5.38
2022-10-22T10:09:16.960Z,4.85
2022-10-22T10:10:32.881Z,5.85
2022-10-22T10:11:42.910Z,5.30
2022-10-22T10:12:52.610Z,4.95
2022-10-22T10:14:08.031Z,4.82
2022-10-22T10:15:20.934Z,6.82
2022-10-22T10:16:45.987Z,5.75
2022-10-22T10:17:58.153Z,5.50
2022-10-22T10:19:19.255Z,4.97
2022-10-22T10:20:32.390Z,4.45
2022-10-22T10:21:44.978Z,4.07
2022-10-22T10:22:59.201Z,4.10
2022-10-22T10:24:09.978Z,4.13
2022-10-22T10:25:31.928Z,4.03
2022-10-22T10:26:43.325Z,4.05
2022-10-22T10:27:54.030Z,3.70
2022-10-22T10:30:14.101Z,3.75
2022-10-22T10:31:26.359Z,3.30
2022-10-22T10:32:45.027Z,3.30
2022-10-22T10:33:57.042Z,3.67
2022-10-22T10:35:15.277Z,3.60
2022-10-22T10:36:24.979Z,6.53
2022-10-22T10:37:32.281Z,4.03
2022-10-22T10:38:49.465Z,3.63
2022-10-22T10:40:11.687Z,3.72
2022-10-22T10:41:20.493Z,3.33
2022-10-22T10:42:31.894Z,3.38
2022-10-22T10:43:45.856Z,3.10
2022-10-22T10:45:03.681Z,3.05
2022-10-22T10:47:34.186Z,2.50
2022-10-22T10:48:50.109Z,3.05
2022-10-22T10:49:58.413Z,3.10
2022-10-22T10:51:12.838Z,2.80
2022-10-22T10:52:24.210Z,2.90
2022-10-22T10:53:40.193Z,2.70
2022-10-22T10:54:48.459Z,3.10
2022-10-22T10:55:59.717Z,3.05
2022-10-22T10:57:10.482Z,2.78
2022-10-22T10:59:33.434Z,2.75
2022-10-22T11:00:41.159Z,2.70
2022-10-22T11:01:57.360Z,2.40
2022-10-22T11:03:28.261Z,3.13
2022-10-22T11:05:00.179Z,4.55
2022-10-22T11:06:07.799Z,3.53
2022-10-22T11:07:30.013Z,6.03
2022-10-22T11:08:41.885Z,3.90
2022-10-22T11:09:51.009Z,3.33
2022-10-22T11:11:01.139Z,3.03
2022-10-22T11:12:08.892Z,3.25
2022-10-22T11:13:19.478Z,2.72
2022-10-22T11:14:27.896Z,3.13
2022-10-22T11:16:43.551Z,3.00
2022-10-22T11:17:48.250Z,3.10
2022-10-22T11:18:59.473Z,2.72
2022-10-22T11:20:09.895Z,3.30
2022-10-22T11:21:22.412Z,3.17
2022-10-22T11:22:29.664Z,3.58
2022-10-22T11:23:39.593Z,2.97
2022-10-22T11:24:47.650Z,3.05
2022-10-22T11:25:50.733Z,3.00
2022-10-22T11:26:59.058Z,2.85
2022-10-22T11:28:20.332Z,3.00
2022-10-22T11:29:37.515Z,3.70
2022-10-22T11:30:44.307Z,3.28
2022-10-22T11:31:48.637Z,3.35
2022-10-22T11:32:56.201Z,3.40
2022-10-22T11:34:28.333Z,3.22
2022-10-22T11:35:34.861Z,3.13
2022-10-22T11:36:39.956Z,3.40
2022-10-22T11:37:45.332Z,3.45
2022-10-22T11:38:47.517Z,3.60
2022-10-22T11:39:54.260Z,3.25
2022-10-22T11:40:59.465Z,3.30
2022-10-22T11:42:06.401Z,3.60
2022-10-22T11:43:11.077Z,3.10
2022-10-22T11:44:23.618Z,3.90
2022-10-22T11:45:33.310Z,3.80
2022-10-22T11:46:43.269Z,3.72
2022-10-22T11:47:59.154Z,3.88
2022-10-22T11:49:04.517Z,4.10
2022-10-22T11:50:22.803Z,4.25
2022-10-22T11:51:33.332Z,3.85
2022-10-22T11:53:44.169Z,3.60
2022-10-22T11:54:47.214Z,3.40
2022-10-22T11:55:51.583Z,4.00
2022-10-22T11:57:00.001Z,4.28
2022-10-22T11:58:24.056Z,3.80
2022-10-22T11:59:39.556Z,3.53
2022-10-22T12:00:49.171Z,3.90
2022-10-22T12:01:57.031Z,3.80
2022-10-22T12:03:06.024Z,3.35
2022-10-22T12:04:23.691Z,3.95
2022-10-22T12:05:35.131Z,3.45
2022-10-22T12:06:56.954Z,3.35
2022-10-22T12:08:23.136Z,4.10
2022-10-22T12:09:32.799Z,3.53
2022-10-22T12:10:37.144Z,3.90
2022-10-22T12:11:42.741Z,4.35
2022-10-22T12:12:52.862Z,4.15
2022-10-22T12:14:05.667Z,3.65
2022-10-22T12:15:27.096Z,3.72
2022-10-22T12:16:57.742Z,3.20
2022-10-22T12:18:01.872Z,2.83
2022-10-22T12:19:12.348Z,3.10
2022-10-22T12:20:17.572Z,2.97
2022-10-22T12:21:19.877Z,2.90
2022-10-22T12:22:24.837Z,3.10
2022-10-22T12:23:34.495Z,2.95
2022-10-22T12:24:40.742Z,2.50
2022-10-22T12:25:42.932Z,3.25
2022-10-22T12:26:47.137Z,3.28
2022-10-22T12:27:53.375Z,2.80
2022-10-22T12:29:00.310Z,3.00
2022-10-22T12:30:14.872Z,3.08
2022-10-22T12:31:17.584Z,3.15
2022-10-22T12:32:20.657Z,3.10
2022-10-22T12:33:24.050Z,2.85
2022-10-22T12:34:27.121Z,3.15
2022-10-22T12:35:32.276Z,3.33
2022-10-22T12:36:37.067Z,2.95
2022-10-22T12:37:40.291Z,3.10
2022-10-22T12:38:47.230Z,3.15
2022-10-22T12:39:50.462Z,3.30
2022-10-22T12:40:56.117Z,3.00
2022-10-22T12:41:59.378Z,2.90
2022-10-22T12:43:03.151Z,2.97
2022-10-22T12:44:07.142Z,3.00
2022-10-22T12:45:16.105Z,2.60
2022-10-22T12:46:19.508Z,2.90
2022-10-22T12:47:21.676Z,3.22
2022-10-22T12:48:28.132Z,3.15
2022-10-22T12:49:35.787Z,2.50
2022-10-22T12:50:44.444Z,2.67
2022-10-22T12:51:47.692Z,3.10
2022-10-22T12:52:50.949Z,3.10
2022-10-22T12:53:56.110Z,2.90
2022-10-22T12:54:59.206Z,3.17
2022-10-22T12:56:05.110Z,2.97
2022-10-22T12:57:14.492Z,2.85
2022-10-22T12:58:19.164Z,2.88
2022-10-22T12:59:25.621Z,3.03
2022-10-22T13:00:34.133Z,2.60
2022-10-22T13:01:39.146Z,2.72
2022-10-22T13:02:43.529Z,2.92
2022-10-22T13:03:49.934Z,3.17
2022-10-22T13:05:16.062Z,2.72
2022-10-22T13:06:26.441Z,3.67
2022-10-22T13:07:40.108Z,4.03
2022-10-22T13:08:42.852Z,3.33
2022-10-22T13:09:49.984Z,2.95
2022-10-22T13:10:54.761Z,3.03
2022-10-22T13:12:04.665Z,2.80
2022-10-22T13:13:07.386Z,3.00
2022-10-22T13:14:21.340Z,2.75
2022-10-22T13:15:36.936Z,2.60
2022-10-22T13:16:41.161Z,2.97
2022-10-22T13:17:43.733Z,3.00
2022-10-22T13:18:47.568Z,3.03
2022-10-22T13:20:01.638Z,2.90
2022-10-22T13:21:06.315Z,3.00
2022-10-22T13:22:28.523Z,3.10
2022-10-22T13:23:33.791Z,2.50
2022-10-22T13:24:39.164Z,2.90
2022-10-22T13:25:43.889Z,2.60
2022-10-22T13:26:49.925Z,2.67
2022-10-22T13:27:56.213Z,2.88
2022-10-22T13:29:01.191Z,2.70
2022-10-22T13:30:15.307Z,3.10
2022-10-22T13:31:25.012Z,2.58
2022-10-22T13:32:32.851Z,2.90
2022-10-22T13:33:39.236Z,2.38
2022-10-22T13:34:42.229Z,3.00
2022-10-22T13:35:49.370Z,3.88
2022-10-22T13:36:54.777Z,2.90
2022-10-22T13:37:57.265Z,2.80
2022-10-22T13:39:00.440Z,3.60
2022-10-22T13:40:02.503Z,3.28
2022-10-22T13:41:20.340Z,2.58
2022-10-22T13:42:23.466Z,2.50
2022-10-22T13:43:27.051Z,2.60
2022-10-22T13:44:30.335Z,2.63
2022-10-22T13:45:32.374Z,2.85
2022-10-22T13:46:40.574Z,2.45
2022-10-22T13:47:45.221Z,2.78
2022-10-22T13:48:50.746Z,3.67
2022-10-22T13:50:59.270Z,2.90
2022-10-22T13:52:01.372Z,3.00
2022-10-22T13:53:05.588Z,2.85
2022-10-22T13:54:14.111Z,2.83
2022-10-22T13:55:20.159Z,2.50
2022-10-22T13:56:24.026Z,2.60
2022-10-22T13:57:27.155Z,2.83
2022-10-22T13:58:29.206Z,2.53
2022-10-22T13:59:32.954Z,3.03
2022-10-22T14:00:36.198Z,2.80
2022-10-22T14:01:39.053Z,3.38
2022-10-22T14:02:42.671Z,3.08
2022-10-22T14:03:47.373Z,3.63
2022-10-22T14:04:49.827Z,2.90
2022-10-22T14:05:53.046Z,2.47
2022-10-22T14:06:56.794Z,3.30
2022-10-22T14:08:03.087Z,2.60
2022-10-22T14:09:08.965Z,2.40
2022-10-22T14:10:17.425Z,2.42
2022-10-22T14:11:20.466Z,2.78
2022-10-22T14:12:25.239Z,2.30
2022-10-22T14:13:28.426Z,2.60
2022-10-22T14:14:30.974Z,3.03
2022-10-22T14:15:35.470Z,2.50
2022-10-22T14:16:38.031Z,2.45
2022-10-22T14:17:45.907Z,2.92
2022-10-22T14:18:48.814Z,2.53
2022-10-22T14:19:51.914Z,3.17
2022-10-22T14:20:56.983Z,2.80
2022-10-22T14:22:00.133Z,2.85
2022-10-22T14:23:12.416Z,2.45
2022-10-22T14:24:16.909Z,2.78
2022-10-22T14:25:22.509Z,2.42
2022-10-22T14:26:28.278Z,2.65
2022-10-22T14:27:31.784Z,2.60
2022-10-22T14:28:41.274Z,3.22
2022-10-22T14:29:58.624Z,2.88
2022-10-22T14:31:02.776Z,2.45
2022-10-22T14:32:11.112Z,2.53
2022-10-22T14:33:18.328Z,3.03
2022-10-22T14:34:20.452Z,2.42
2022-10-22T14:35:24.064Z,2.38
2022-10-22T14:36:26.157Z,4.07